Mill Creek, Washington
Current Conditions -  °F | °C
As of 3:53 PM on Saturday 25 Oct 2014 (Local Time) from KPAE Reporting Station
Moderate Rain Moderate Rain  
Wind Chill: 57°   Ceiling: 6000
Heat Index: 57°   Visibility: 5mi
Dew Point: 51°   Wind: 8mph
Humidity: 81%   Direction: 150°SSE
Pressure: 29.31"   Gusts: NA
Location:  47.857°N, 122.216°W
Report Text: KPAE 252253Z 15007KT 5SM RA OVC060 14/11 A2931 RMK AO2 SLP926 P0012 T01390106
Loading
Personal Weather Stations






























Interactive Weather Map
Tropical Storm Tracking
New forecast layout! Learn more

10-Day Weather Forecast

Advertisements
Track Severe Weather on mobile